Time;durP1;ratioP1;P1;durP2;ratioP2;P2;SDS_P1;SDS_P2;PMS_P1;PMS_P2;Temp;Humidity;BMP_temperature;BMP_pressure;BME280_temperature;BME280_humidity;BME280_pressure;Samples;Min_cycle;Max_cycle;Signal;HPM_P1;HPM_P2
2022/08/31 00:06:10;;;;;;;3.17;1.40;;;19.80;99.90;;;;;;5035214;28;20198;-87
2022/08/31 00:08:36;;;;;;;6.38;1.52;;;19.70;99.90;;;;;;5033370;28;20601;-87
2022/08/31 00:11:01;;;;;;;4.05;1.20;;;19.80;99.90;;;;;;5033789;28;20179;-87
2022/08/31 00:13:27;;;;;;;1.42;1.30;;;19.70;99.90;;;;;;5033096;28;20195;-87
2022/08/31 00:15:54;;;;;;;2.50;1.35;;;19.70;99.90;;;;;;5033256;28;20160;-87
2022/08/31 00:18:21;;;;;;;2.22;1.55;;;19.60;99.90;;;;;;5033265;28;20168;-87
2022/08/31 00:20:47;;;;;;;2.42;1.35;;;19.50;99.90;;;;;;5034421;28;20203;-86
2022/08/31 00:23:15;;;;;;;5.47;1.63;;;19.40;99.90;;;;;;5032985;28;20599;-86
2022/08/31 00:25:43;;;;;;;2.78;1.42;;;19.50;99.90;;;;;;5032337;28;20172;-86
2022/08/31 00:28:11;;;;;;;3.83;1.92;;;19.70;99.90;;;;;;5032895;28;20255;-86
2022/08/31 00:30:37;;;;;;;7.38;1.48;;;19.80;99.90;;;;;;5032785;28;20633;-86
2022/08/31 00:33:03;;;;;;;7.90;2.05;;;19.70;99.90;;;;;;5033096;28;20203;-86
2022/08/31 00:35:32;;;;;;;6.85;1.35;;;19.70;99.90;;;;;;5034091;28;20262;-86
2022/08/31 00:37:58;;;;;;;1.42;1.33;;;19.60;99.90;;;;;;5032859;28;20183;-86
2022/08/31 00:40:25;;;;;;;8.10;1.70;;;19.40;99.90;;;;;;5032744;28;20196;-86
2022/08/31 00:42:50;;;;;;;2.70;1.70;;;19.40;99.90;;;;;;5033242;28;20183;-86
2022/08/31 00:45:16;;;;;;;17.08;1.60;;;19.50;99.90;;;;;;5032981;28;20635;-86
2022/08/31 00:47:42;;;;;;;2.35;1.10;;;19.40;99.90;;;;;;5032770;28;20167;-86
2022/08/31 00:50:11;;;;;;;5.32;1.67;;;19.30;99.90;;;;;;5032528;28;20220;-87
2022/08/31 00:52:41;;;;;;;17.08;1.33;;;19.40;99.90;;;;;;5032265;28;20237;-86
2022/08/31 00:55:20;;;;;;;5.63;1.58;;;19.50;99.90;;;;;;5032421;28;20314;-87
2022/08/31 00:57:50;;;;;;;5.97;1.55;;;19.50;99.90;;;;;;5033862;28;20163;-86
2022/08/31 01:00:20;;;;;;;2.17;1.67;;;19.40;99.90;;;;;;5033966;28;20215;-86
2022/08/31 01:02:46;;;;;;;1.63;1.52;;;19.30;99.90;;;;;;5033582;28;20200;-86
2022/08/31 01:05:14;;;;;;;2.15;1.42;;;19.40;99.90;;;;;;5032761;28;20234;-86
2022/08/31 01:07:41;;;;;;;1.50;1.40;;;19.50;99.90;;;;;;5032640;28;20682;-86
2022/08/31 01:10:07;;;;;;;1.88;1.45;;;19.60;99.90;;;;;;5032763;28;20246;-86
2022/08/31 01:12:33;;;;;;;2.65;1.20;;;19.50;99.90;;;;;;5032604;28;20210;-86
2022/08/31 01:15:03;;;;;;;2.83;1.55;;;19.50;99.90;;;;;;5033544;28;20199;-86
2022/08/31 01:17:32;;;;;;;2.90;1.52;;;19.50;99.90;;;;;;5032359;28;20171;-86
2022/08/31 01:20:16;;;;;;;6.65;1.33;;;19.50;99.90;;;;;;5032184;28;20210;-86
2022/08/31 01:22:57;;;;;;;7.65;1.52;;;19.40;99.90;;;;;;5032222;28;20250;-87
2022/08/31 01:25:23;;;;;;;2.38;1.40;;;19.50;99.90;;;;;;5042358;28;20199;-86
2022/08/31 01:27:49;;;;;;;2.75;1.80;;;19.40;99.90;;;;;;5044581;28;20172;-86
2022/08/31 01:30:22;;;;;;;2.72;1.83;;;19.40;99.90;;;;;;5046278;28;20180;-86
2022/08/31 01:32:47;;;;;;;5.10;1.60;;;19.30;99.90;;;;;;5042450;28;20199;-87
2022/08/31 01:35:13;;;;;;;2.20;1.50;;;19.20;99.90;;;;;;5032789;28;20160;-86
2022/08/31 01:37:39;;;;;;;9.52;1.60;;;19.20;99.90;;;;;;5036082;28;20171;-86
2022/08/31 01:40:05;;;;;;;5.00;1.65;;;19.40;99.90;;;;;;5035925;28;20209;-86
2022/08/31 01:42:31;;;;;;;1.52;1.42;;;19.30;99.90;;;;;;5035661;28;20191;-86
2022/08/31 01:44:57;;;;;;;9.15;1.48;;;19.30;99.90;;;;;;5036143;28;20172;-87
2022/08/31 01:47:22;;;;;;;2.40;1.42;;;19.40;99.90;;;;;;5035856;28;20537;-86
2022/08/31 01:49:48;;;;;;;5.75;1.35;;;19.40;99.90;;;;;;5035912;28;20164;-86
2022/08/31 01:52:14;;;;;;;3.65;1.98;;;19.40;99.90;;;;;;5035633;28;20274;-87
2022/08/31 01:54:39;;;;;;;3.20;1.50;;;19.20;99.90;;;;;;5035768;28;20191;-86
2022/08/31 01:57:05;;;;;;;1.83;1.70;;;19.20;99.90;;;;;;5036973;28;20175;-87
2022/08/31 01:59:31;;;;;;;7.95;1.55;;;19.10;99.90;;;;;;5036756;28;20668;-86
2022/08/31 02:01:56;;;;;;;2.17;1.90;;;19.10;99.90;;;;;;5037621;28;20232;-86
2022/08/31 02:04:25;;;;;;;1.90;1.70;;;19.10;99.90;;;;;;5036149;28;20271;-87
2022/08/31 02:06:53;;;;;;;2.47;1.85;;;19.30;99.90;;;;;;5035419;28;20207;-86
2022/08/31 02:09:20;;;;;;;7.28;1.58;;;19.20;99.90;;;;;;5035767;28;20168;-86
2022/08/31 02:11:46;;;;;;;1.70;1.52;;;19.20;99.90;;;;;;5035210;28;20187;-86
2022/08/31 02:14:13;;;;;;;1.50;1.40;;;19.20;99.90;;;;;;5035621;28;20612;-86
2022/08/31 02:16:39;;;;;;;5.20;1.52;;;19.10;99.90;;;;;;5035399;28;20172;-86
2022/08/31 02:19:06;;;;;;;2.47;2.03;;;19.00;99.90;;;;;;5035468;28;20156;-86
2022/08/31 02:21:32;;;;;;;5.00;1.60;;;19.00;99.90;;;;;;5040829;28;20168;-87
2022/08/31 02:23:57;;;;;;;4.97;1.73;;;19.00;99.90;;;;;;5040592;28;20235;-87
2022/08/31 02:26:23;;;;;;;1.80;1.70;;;19.10;99.90;;;;;;5040196;28;20292;-86
2022/08/31 02:28:49;;;;;;;2.35;2.05;;;19.00;99.90;;;;;;5039525;28;20639;-86
2022/08/31 02:31:15;;;;;;;4.88;2.58;;;19.00;99.90;;;;;;5035543;28;20199;-86
2022/08/31 02:33:42;;;;;;;1.98;1.85;;;19.00;99.90;;;;;;5035065;28;20831;-86
2022/08/31 02:36:07;;;;;;;5.25;2.03;;;18.70;99.90;;;;;;5035106;28;20172;-86
2022/08/31 02:38:34;;;;;;;4.93;1.70;;;18.90;99.90;;;;;;5035208;28;20194;-87
2022/08/31 02:41:00;;;;;;;2.00;1.80;;;18.90;99.90;;;;;;5035268;28;20249;-86
2022/08/31 02:43:26;;;;;;;5.25;1.98;;;18.90;99.90;;;;;;5035934;28;20647;-86
2022/08/31 02:45:52;;;;;;;3.63;1.90;;;18.70;99.90;;;;;;5041386;28;20243;-87
2022/08/31 02:48:18;;;;;;;3.35;2.15;;;18.80;99.90;;;;;;5035231;28;20263;-85
2022/08/31 02:50:47;;;;;;;3.33;2.05;;;18.90;99.90;;;;;;5034801;28;20292;-86
2022/08/31 02:53:14;;;;;;;3.30;1.75;;;18.80;99.90;;;;;;5034778;28;20196;-86
2022/08/31 02:55:41;;;;;;;4.22;2.03;;;18.80;99.90;;;;;;5034693;28;20186;-86
2022/08/31 02:58:08;;;;;;;2.50;2.10;;;18.60;99.90;;;;;;5034727;28;20277;-87
2022/08/31 03:00:34;;;;;;;4.80;1.98;;;18.70;99.90;;;;;;5034564;28;20211;-86
2022/08/31 03:03:00;;;;;;;3.17;2.33;;;18.70;99.90;;;;;;5034459;28;20660;-86
2022/08/31 03:05:27;;;;;;;4.05;2.28;;;18.70;99.90;;;;;;5035450;28;20171;-86
2022/08/31 03:07:53;;;;;;;3.38;2.22;;;18.60;99.90;;;;;;5035478;28;20175;-86
2022/08/31 03:10:21;;;;;;;2.58;2.35;;;18.70;99.90;;;;;;5034703;28;20168;-87
2022/08/31 03:12:47;;;;;;;4.53;2.40;;;18.50;99.90;;;;;;5034445;28;20194;-86
2022/08/31 03:15:14;;;;;;;3.90;1.85;;;18.50;99.90;;;;;;5035465;28;20203;-86
2022/08/31 03:17:40;;;;;;;2.47;2.25;;;18.60;99.90;;;;;;5034235;28;20160;-87
2022/08/31 03:20:06;;;;;;;2.88;1.88;;;18.50;99.90;;;;;;5034246;28;20611;-86
2022/08/31 03:22:32;;;;;;;3.00;2.08;;;18.30;99.90;;;;;;5034305;28;20679;-86
2022/08/31 03:24:58;;;;;;;2.17;1.98;;;18.20;99.90;;;;;;5034061;28;20175;-86
2022/08/31 03:27:26;;;;;;;11.90;2.50;;;18.30;99.90;;;;;;5033899;28;20178;-86
2022/08/31 03:29:52;;;;;;;2.13;1.98;;;18.50;99.90;;;;;;5035263;28;20183;-86
2022/08/31 03:32:19;;;;;;;3.75;2.30;;;18.40;99.90;;;;;;5035180;28;20180;-87
2022/08/31 03:34:45;;;;;;;11.00;2.22;;;18.50;99.90;;;;;;5033908;28;20168;-86
2022/08/31 03:37:11;;;;;;;10.55;2.92;;;18.40;99.90;;;;;;5033964;28;20174;-86
2022/08/31 03:39:37;;;;;;;5.72;2.08;;;18.10;99.90;;;;;;5033954;28;20217;-86
2022/08/31 03:42:05;;;;;;;2.40;2.20;;;18.10;99.90;;;;;;5033762;28;20248;-86
2022/08/31 03:44:31;;;;;;;4.10;2.20;;;18.20;99.90;;;;;;5033881;28;20172;-86
2022/08/31 03:46:58;;;;;;;2.60;2.30;;;18.10;99.90;;;;;;5033664;28;20172;-85
2022/08/31 03:49:24;;;;;;;3.60;2.50;;;18.20;99.90;;;;;;5034335;28;20168;-86
2022/08/31 03:51:50;;;;;;;8.48;2.33;;;18.30;99.90;;;;;;5034775;28;20274;-86
2022/08/31 03:54:17;;;;;;;3.30;2.63;;;18.10;99.90;;;;;;5033641;28;20172;-88
2022/08/31 03:56:43;;;;;;;2.45;2.25;;;17.90;99.90;;;;;;5033612;28;20643;-86
2022/08/31 03:59:08;;;;;;;5.03;2.10;;;18.00;99.90;;;;;;5033864;28;20183;-85
2022/08/31 04:01:35;;;;;;;5.57;2.15;;;18.00;99.90;;;;;;5033665;28;20636;-88
2022/08/31 04:04:01;;;;;;;6.03;2.10;;;18.20;99.90;;;;;;5036498;28;20202;-87
2022/08/31 04:06:27;;;;;;;4.00;2.60;;;18.10;99.90;;;;;;5034471;28;20189;-87
2022/08/31 04:08:54;;;;;;;2.70;2.20;;;18.10;99.90;;;;;;5034998;28;20167;-88
2022/08/31 04:11:20;;;;;;;2.35;2.15;;;17.90;99.90;;;;;;5033699;28;20160;-87
2022/08/31 04:13:46;;;;;;;4.85;2.47;;;18.20;99.90;;;;;;5033460;28;20191;-87
2022/08/31 04:16:14;;;;;;;10.57;2.85;;;18.00;99.90;;;;;;5033379;28;20172;-87
2022/08/31 04:18:42;;;;;;;5.97;2.10;;;18.00;99.90;;;;;;5033201;28;20171;-88
2022/08/31 04:21:20;;;;;;;3.72;2.90;;;18.10;99.90;;;;;;5033020;28;20306;-86
2022/08/31 04:23:48;;;;;;;3.13;2.58;;;18.10;99.90;;;;;;5032951;28;20651;-87
2022/08/31 04:26:26;;;;;;;4.13;2.35;;;18.20;99.90;;;;;;5032999;28;20172;-87
2022/08/31 04:28:52;;;;;;;6.93;2.53;;;18.10;99.90;;;;;;5034033;28;20305;-88
2022/08/31 04:31:19;;;;;;;3.40;2.20;;;18.10;99.90;;;;;;5032979;28;20237;-87
2022/08/31 04:33:45;;;;;;;3.30;2.45;;;18.00;99.90;;;;;;5032965;28;20623;-88
2022/08/31 04:36:15;;;;;;;4.95;2.65;;;18.10;99.90;;;;;;5032759;28;20167;-87
2022/08/31 04:38:42;;;;;;;9.10;2.28;;;18.30;99.90;;;;;;5032922;28;20182;-87
2022/08/31 04:41:10;;;;;;;7.40;2.55;;;18.40;99.90;;;;;;5033849;28;20210;-87
2022/08/31 04:43:37;;;;;;;3.53;2.25;;;18.40;99.90;;;;;;5032737;28;20198;-87
2022/08/31 04:46:05;;;;;;;3.15;2.22;;;18.20;99.90;;;;;;5032767;28;20644;-87
2022/08/31 04:48:31;;;;;;;13.23;2.55;;;18.30;99.90;;;;;;5034283;28;20194;-87
2022/08/31 04:51:09;;;;;;;9.85;2.28;;;18.20;99.90;;;;;;5032866;28;20175;-88
2022/08/31 04:53:37;;;;;;;2.67;2.25;;;18.30;99.90;;;;;;5032536;28;20746;-87
2022/08/31 04:56:13;;;;;;;4.70;2.65;;;18.30;99.90;;;;;;5032898;28;20171;-88
2022/08/31 04:58:43;;;;;;;4.22;2.58;;;18.30;99.90;;;;;;5032789;28;20590;-87
2022/08/31 05:01:14;;;;;;;11.65;3.00;;;18.00;99.90;;;;;;5032779;28;20297;-87
2022/08/31 05:03:39;;;;;;;4.15;2.78;;;17.80;99.90;;;;;;5032489;28;20203;-88
2022/08/31 05:06:10;;;;;;;5.65;3.03;;;17.90;99.90;;;;;;5032674;28;20179;-87
2022/08/31 05:08:36;;;;;;;4.70;2.58;;;17.80;99.90;;;;;;5032982;28;20632;-87
2022/08/31 05:11:09;;;;;;;8.05;3.35;;;17.80;99.90;;;;;;5035153;28;20175;-87
2022/08/31 05:13:36;;;;;;;2.88;2.33;;;17.80;99.90;;;;;;5037057;28;20237;-87
2022/08/31 05:16:04;;;;;;;8.65;2.33;;;17.80;99.90;;;;;;5037631;28;20168;-87
2022/08/31 05:18:30;;;;;;;5.15;2.95;;;17.80;99.90;;;;;;5036580;28;20175;-87
2022/08/31 05:20:56;;;;;;;5.05;2.20;;;17.80;99.90;;;;;;5037765;28;20223;-87
2022/08/31 05:23:21;;;;;;;3.38;2.55;;;17.90;99.90;;;;;;5036448;28;20207;-87
2022/08/31 05:25:47;;;;;;;3.75;2.42;;;18.00;99.90;;;;;;5036341;28;20199;-86
2022/08/31 05:28:13;;;;;;;3.92;2.85;;;17.90;99.90;;;;;;5036361;28;20179;-87
2022/08/31 05:30:43;;;;;;;14.32;2.55;;;17.80;99.90;;;;;;5036430;28;20178;-87
2022/08/31 05:33:09;;;;;;;4.47;2.45;;;18.00;99.90;;;;;;5036934;28;20191;-87
2022/08/31 05:35:35;;;;;;;2.67;2.47;;;18.10;99.90;;;;;;5036669;28;20698;-88
2022/08/31 05:38:00;;;;;;;2.50;2.30;;;18.10;99.90;;;;;;5037385;28;20167;-88
2022/08/31 05:40:26;;;;;;;4.28;2.40;;;18.00;99.90;;;;;;5038462;28;20302;-88
2022/08/31 05:42:52;;;;;;;8.73;2.20;;;17.80;99.90;;;;;;5037868;28;20625;-87
2022/08/31 05:45:18;;;;;;;8.13;2.97;;;17.70;99.90;;;;;;5039290;28;20187;-87
2022/08/31 05:47:43;;;;;;;12.40;2.65;;;17.80;99.90;;;;;;5036122;28;20238;-88
2022/08/31 05:50:09;;;;;;;23.75;3.72;;;17.80;99.90;;;;;;5036726;28;20298;-86
2022/08/31 05:52:35;;;;;;;8.93;2.65;;;17.80;99.90;;;;;;5036801;28;20191;-87
2022/08/31 05:55:00;;;;;;;7.78;2.97;;;17.90;99.90;;;;;;5036317;28;20175;-85
2022/08/31 05:57:26;;;;;;;3.28;2.58;;;17.90;99.90;;;;;;5035008;28;20171;-87
2022/08/31 05:59:51;;;;;;;4.68;2.55;;;17.90;99.90;;;;;;5035649;28;20199;-88
2022/08/31 06:02:17;;;;;;;2.55;2.30;;;18.00;99.90;;;;;;5036079;28;20234;-87
2022/08/31 06:04:43;;;;;;;7.45;2.17;;;18.10;99.90;;;;;;5035535;28;20206;-87
2022/08/31 06:07:09;;;;;;;6.72;2.97;;;17.80;99.90;;;;;;5035566;28;20731;-87
2022/08/31 06:09:37;;;;;;;3.47;2.95;;;18.00;99.90;;;;;;5035402;28;20172;-87
2022/08/31 06:12:04;;;;;;;2.95;2.20;;;18.10;99.90;;;;;;5034647;28;20205;-87
2022/08/31 06:14:31;;;;;;;8.98;2.40;;;18.20;99.90;;;;;;5035269;28;20179;-87
2022/08/31 06:16:58;;;;;;;4.00;2.83;;;18.40;99.90;;;;;;5035181;28;20515;-86
2022/08/31 06:19:24;;;;;;;3.90;2.03;;;18.50;99.90;;;;;;5035072;28;20183;-89
2022/08/31 06:21:50;;;;;;;7.10;2.10;;;18.60;99.90;;;;;;5034445;28;20199;-87
2022/08/31 06:24:18;;;;;;;8.15;2.60;;;18.80;99.90;;;;;;5035135;28;20175;-87
2022/08/31 06:26:51;;;;;;;3.17;2.47;;;18.60;99.90;;;;;;5035016;28;20187;-87
2022/08/31 06:29:17;;;;;;;3.33;2.72;;;18.60;99.90;;;;;;5035912;28;20175;-89
2022/08/31 06:31:46;;;;;;;2.90;2.70;;;18.60;99.90;;;;;;5035604;28;20184;-89
2022/08/31 06:34:16;;;;;;;3.22;2.75;;;18.50;99.90;;;;;;5035251;28;20172;-87
2022/08/31 06:36:41;;;;;;;4.00;2.63;;;18.50;99.90;;;;;;5036206;28;20175;-86
2022/08/31 06:39:07;;;;;;;3.83;2.40;;;18.60;99.90;;;;;;5034717;28;20168;-88
2022/08/31 06:41:35;;;;;;;4.85;2.65;;;18.90;99.90;;;;;;5035271;28;20572;-87
2022/08/31 06:44:07;;;;;;;3.22;2.78;;;18.90;99.90;;;;;;5034598;28;20179;-87
2022/08/31 06:46:34;;;;;;;5.97;2.53;;;18.90;99.90;;;;;;5034032;28;20253;-85
2022/08/31 06:49:01;;;;;;;3.47;2.55;;;18.90;99.90;;;;;;5033403;28;20548;-83
2022/08/31 06:51:28;;;;;;;7.15;2.75;;;18.80;99.90;;;;;;5033167;28;20164;-84
2022/08/31 06:53:53;;;;;;;7.50;2.80;;;19.10;99.90;;;;;;5031450;28;20183;-83
2022/08/31 06:56:22;;;;;;;8.82;2.75;;;19.30;99.90;;;;;;5026273;28;20655;-84
2022/08/31 06:58:49;;;;;;;3.45;2.58;;;19.40;99.90;;;;;;5032979;28;20179;-84
2022/08/31 07:01:27;;;;;;;3.05;2.58;;;19.60;99.90;;;;;;5033734;28;20675;-85
2022/08/31 07:03:54;;;;;;;4.68;2.60;;;19.60;99.90;;;;;;5032736;28;20225;-82
2022/08/31 07:06:22;;;;;;;6.82;2.60;;;19.50;99.90;;;;;;5033372;28;20172;-84
2022/08/31 07:08:51;;;;;;;3.08;2.78;;;19.20;99.90;;;;;;5032528;28;20179;-84
2022/08/31 07:11:51;;;;;;;9.32;3.25;;;19.30;99.90;;;;;;5032409;28;20226;-83
2022/08/31 07:14:23;;;;;;;10.27;2.45;;;19.40;99.90;;;;;;5024754;28;20700;-84
2022/08/31 07:16:49;;;;;;;8.00;2.85;;;19.40;99.90;;;;;;5012215;28;20172;-83
2022/08/31 07:19:15;;;;;;;3.50;2.65;;;19.40;99.90;;;;;;5013023;28;20536;-83
2022/08/31 07:21:47;;;;;;;3.92;2.75;;;19.30;99.90;;;;;;5012926;28;20294;-83
2022/08/31 07:24:16;;;;;;;2.80;2.58;;;19.10;99.90;;;;;;5012913;28;20219;-83
2022/08/31 07:26:45;;;;;;;9.13;2.47;;;19.30;99.90;;;;;;5011955;28;20176;-82
2022/08/31 07:29:13;;;;;;;5.47;2.28;;;19.40;99.90;;;;;;5012031;28;20637;-84
2022/08/31 07:31:45;;;;;;;5.93;2.65;;;19.60;99.90;;;;;;5013463;28;20231;-84
2022/08/31 07:34:13;;;;;;;11.43;3.17;;;19.70;99.90;;;;;;5012615;28;20180;-84
2022/08/31 07:42:10;;;;;;;11.93;2.53;;;20.00;99.90;;;;;;5013283;28;20211;-82
2022/08/31 07:44:37;;;;;;;21.92;2.80;;;20.10;99.90;;;;;;5012702;28;20219;-85
2022/08/31 07:47:03;;;;;;;15.30;4.20;;;19.90;99.90;;;;;;5012433;28;20168;-85
2022/08/31 07:49:29;;;;;;;3.33;2.50;;;19.60;99.90;;;;;;5012594;28;20165;-85
2022/08/31 07:51:56;;;;;;;4.97;2.45;;;19.80;99.90;;;;;;5013506;28;20212;-82
2022/08/31 07:54:26;;;;;;;5.65;2.72;;;20.00;99.90;;;;;;5012984;28;20207;-84
2022/08/31 07:57:02;;;;;;;3.00;2.58;;;19.80;99.90;;;;;;5011869;28;20637;-84
2022/08/31 07:59:30;;;;;;;4.28;2.88;;;20.00;99.90;;;;;;5012038;28;20168;-84
2022/08/31 08:01:59;;;;;;;7.80;2.92;;;19.80;99.90;;;;;;5011970;28;20680;-84
2022/08/31 08:04:25;;;;;;;5.90;2.25;;;19.70;99.90;;;;;;5011867;28;20164;-84
2022/08/31 08:06:54;;;;;;;6.13;2.35;;;20.00;99.90;;;;;;5012488;28;20629;-85
2022/08/31 08:09:22;;;;;;;2.85;2.60;;;20.30;99.90;;;;;;5012645;28;20259;-85
2022/08/31 08:11:53;;;;;;;12.75;2.95;;;20.50;99.90;;;;;;5012324;28;20223;-83
2022/08/31 08:14:20;;;;;;;11.20;3.08;;;20.50;99.90;;;;;;5012375;28;20168;-83
2022/08/31 08:16:45;;;;;;;3.17;2.67;;;20.60;99.90;;;;;;5012082;28;20493;-84
2022/08/31 08:19:11;;;;;;;2.65;2.45;;;20.70;99.90;;;;;;5012047;28;20164;-84
2022/08/31 08:21:37;;;;;;;5.00;2.40;;;20.90;99.90;;;;;;5012392;28;20204;-85
2022/08/31 08:24:03;;;;;;;3.15;2.85;;;20.80;99.90;;;;;;5012346;28;20169;-85
2022/08/31 08:26:29;;;;;;;12.60;2.88;;;20.70;99.90;;;;;;5012844;28;20173;-85
2022/08/31 08:28:55;;;;;;;6.63;2.85;;;20.60;99.90;;;;;;5012870;28;20179;-85
2022/08/31 08:31:24;;;;;;;18.08;3.58;;;20.50;99.90;;;;;;5012325;28;20176;-85
2022/08/31 08:33:51;;;;;;;5.50;2.90;;;20.40;99.90;;;;;;5012500;28;20275;-85
2022/08/31 08:36:18;;;;;;;8.32;3.53;;;20.40;99.90;;;;;;5012236;28;20168;-83
2022/08/31 08:38:46;;;;;;;15.65;3.42;;;20.50;99.90;;;;;;5011792;28;20235;-83
2022/08/31 08:41:17;;;;;;;10.50;2.95;;;20.70;99.90;;;;;;5011463;28;20240;-83
2022/08/31 08:43:47;;;;;;;18.25;3.08;;;20.70;99.90;;;;;;5012677;28;20637;-83
2022/08/31 08:46:14;;;;;;;10.27;3.53;;;20.70;99.90;;;;;;5010625;28;20180;-84
2022/08/31 08:48:42;;;;;;;7.78;3.22;;;20.80;99.90;;;;;;5013009;28;20222;-84
2022/08/31 08:51:15;;;;;;;36.30;3.97;;;21.10;99.90;;;;;;5011496;28;20168;-83
2022/08/31 08:53:43;;;;;;;20.65;2.65;;;21.10;99.90;;;;;;5012903;28;20779;-85
2022/08/31 08:56:12;;;;;;;10.95;3.55;;;20.90;99.90;;;;;;5011919;28;20287;-84
2022/08/31 08:58:43;;;;;;;12.63;3.25;;;20.90;99.90;;;;;;5013283;28;20179;-82
2022/08/31 09:01:21;;;;;;;11.90;2.65;;;21.00;99.90;;;;;;5011446;28;20313;-83
2022/08/31 09:04:01;;;;;;;4.75;2.90;;;21.10;99.90;;;;;;5012457;28;20298;-83
2022/08/31 09:06:33;;;;;;;12.95;2.97;;;21.50;99.90;;;;;;5010960;28;20219;-83
2022/08/31 09:09:31;;;;;;;4.82;2.90;;;21.70;99.90;;;;;;5012397;28;20160;-83
2022/08/31 09:12:19;;;;;;;2.50;2.30;;;21.90;99.90;;;;;;5011242;28;20184;-83
2022/08/31 09:15:15;;;;;;;9.93;2.70;;;21.80;99.90;;;;;;5011011;28;20831;-85
2022/08/31 09:17:50;;;;;;;2.67;2.30;;;21.70;99.90;;;;;;5012159;28;20168;-84
2022/08/31 09:20:15;;;;;;;9.65;2.30;;;21.90;99.90;;;;;;5011126;28;20267;-83
2022/08/31 09:22:50;;;;;;;2.88;2.67;;;21.80;99.90;;;;;;5010811;28;20649;-83
2022/08/31 09:25:32;;;;;;;8.57;2.40;;;21.80;99.90;;;;;;5011038;28;20176;-83
2022/08/31 09:28:06;;;;;;;9.75;2.55;;;21.80;99.90;;;;;;5011114;28;20575;-83
2022/08/31 09:30:35;;;;;;;7.95;2.72;;;21.80;99.90;;;;;;5011252;28;20698;-83
2022/08/31 09:33:00;;;;;;;4.20;2.72;;;21.80;99.90;;;;;;5011239;28;20193;-83
2022/08/31 09:35:42;;;;;;;3.75;2.75;;;21.90;99.90;;;;;;5010994;28;20629;-83
2022/08/31 09:38:24;;;;;;;7.93;3.05;;;21.90;99.90;;;;;;5010816;28;20625;-85
2022/08/31 09:40:51;;;;;;;6.68;2.45;;;21.80;99.90;;;;;;5011989;28;20212;-83
2022/08/31 09:43:25;;;;;;;4.10;2.70;;;21.70;99.90;;;;;;5012251;28;20226;-83
2022/08/31 09:46:11;;;;;;;7.45;2.60;;;21.60;99.90;;;;;;5010668;28;20279;-83
2022/08/31 09:48:47;;;;;;;19.17;3.15;;;21.70;99.90;;;;;;5010653;28;20172;-83
2022/08/31 09:51:27;;;;;;;3.05;2.60;;;21.90;99.90;;;;;;5011019;28;20644;-83
2022/08/31 09:56:56;;;;;;;4.07;2.90;;;22.20;99.90;;;;;;5013262;28;20564;-83
2022/08/31 09:59:36;;;;;;;7.72;3.05;;;22.10;99.90;;;;;;5014024;28;20192;-83
2022/08/31 10:02:06;;;;;;;5.47;2.88;;;22.00;99.90;;;;;;5014214;28;20200;-85
2022/08/31 10:04:36;;;;;;;2.58;2.38;;;21.70;99.90;;;;;;5014113;28;20196;-84
2022/08/31 10:07:31;;;;;;;12.45;2.47;;;21.50;99.90;;;;;;5014026;28;20264;-84
2022/08/31 10:10:14;;;;;;;6.68;2.75;;;21.70;99.90;;;;;;5014315;28;20176;-85
2022/08/31 10:12:59;;;;;;;15.48;2.92;;;21.80;99.90;;;;;;5014504;28;20188;-83
2022/08/31 10:15:30;;;;;;;14.90;3.45;;;21.90;99.90;;;;;;5015885;28;20226;-85
2022/08/31 10:18:21;;;;;;;12.70;2.88;;;21.80;99.90;;;;;;5013689;28;20164;-84
2022/08/31 10:20:54;;;;;;;7.75;2.20;;;22.10;99.90;;;;;;5013282;28;20223;-82
2022/08/31 10:23:33;;;;;;;16.45;3.65;;;22.30;99.90;;;;;;5016969;28;20185;-84
2022/08/31 10:26:06;;;;;;;7.38;2.85;;;21.90;99.90;;;;;;5013898;28;20222;-83
2022/08/31 10:28:48;;;;;;;5.22;2.60;;;21.80;99.90;;;;;;5015195;28;20203;-86
2022/08/31 10:31:22;;;;;;;11.90;3.13;;;21.70;99.90;;;;;;5013835;28;20176;-83
2022/08/31 10:37:30;;;;;;;3.00;2.70;;;21.80;99.90;;;;;;5015155;28;20179;-84
2022/08/31 10:40:06;;;;;;;7.85;2.95;;;22.00;99.90;;;;;;5013487;28;20272;-83
2022/08/31 10:42:40;;;;;;;3.85;2.58;;;22.10;99.90;;;;;;5013608;28;20199;-86
2022/08/31 10:45:21;;;;;;;8.70;2.65;;;22.30;99.90;;;;;;5015727;28;20632;-84
2022/08/31 10:47:49;;;;;;;11.68;2.65;;;22.50;99.90;;;;;;5013784;28;20271;-83
2022/08/31 10:50:43;;;;;;;11.52;2.72;;;22.70;99.90;;;;;;5014438;28;20192;-83
2022/08/31 10:53:31;;;;;;;15.73;3.30;;;22.80;99.90;;;;;;5010982;28;20204;-94
2022/08/31 10:56:13;;;;;;;11.73;3.30;;;23.00;99.90;;;;;;5019814;28;20200;-85
2022/08/31 10:59:00;;;;;;;16.73;2.67;;;22.90;99.90;;;;;;5017921;28;20175;-82
2022/08/31 11:02:03;;;;;;;13.65;2.95;;;23.00;99.90;;;;;;5014435;28;20208;-83
2022/08/31 11:04:44;;;;;;;4.97;2.70;;;22.90;99.90;;;;;;5013605;28;20183;-85
2022/08/31 11:07:38;;;;;;;8.40;3.10;;;23.00;99.90;;;;;;5016693;28;20172;-83
2022/08/31 11:10:18;;;;;;;18.48;2.92;;;23.20;99.90;;;;;;5014437;28;20660;-84
2022/08/31 11:12:50;;;;;;;4.03;3.08;;;23.30;99.90;;;;;;5013415;28;20240;-82
2022/08/31 11:15:57;;;;;;;3.40;2.63;;;23.30;99.90;;;;;;5013821;28;20180;-82
2022/08/31 11:18:34;;;;;;;7.35;2.85;;;23.20;99.90;;;;;;5000048;28;20196;-82
2022/08/31 11:21:34;;;;;;;10.00;3.13;;;23.20;99.90;;;;;;5012759;28;20211;-82
2022/08/31 11:24:47;;;;;;;26.80;3.63;;;23.20;99.90;;;;;;5012276;28;20226;-83
2022/08/31 11:27:35;;;;;;;12.35;3.50;;;23.20;99.90;;;;;;4977828;28;20233;-82
2022/08/31 11:30:06;;;;;;;6.97;3.25;;;23.20;99.90;;;;;;5013927;28;20171;-82
2022/08/31 11:32:50;;;;;;;15.52;2.90;;;23.10;99.90;;;;;;5012733;28;20664;-82
2022/08/31 11:38:53;;;;;;;7.53;2.72;;;23.60;99.90;;;;;;4990739;28;20180;-81
2022/08/31 11:41:40;;;;;;;16.75;2.88;;;23.70;99.90;;;;;;5012571;28;20208;-84
2022/08/31 11:44:08;;;;;;;9.18;3.40;;;23.70;99.90;;;;;;5012195;28;20191;-83
2022/08/31 11:46:37;;;;;;;21.95;3.65;;;23.70;99.90;;;;;;5013489;28;20642;-85
2022/08/31 11:49:04;;;;;;;3.35;2.53;;;23.60;99.90;;;;;;5012658;28;20179;-86
2022/08/31 11:51:41;;;;;;;9.70;2.25;;;23.50;99.90;;;;;;5013863;28;20173;-85
2022/08/31 11:54:40;;;;;;;12.43;3.83;;;23.70;99.90;;;;;;5012584;28;20373;-85
2022/08/31 11:57:22;;;;;;;9.32;2.55;;;23.70;99.90;;;;;;5012683;28;20181;-85
2022/08/31 11:59:49;;;;;;;15.30;2.60;;;23.70;99.90;;;;;;5012327;28;20294;-86
2022/08/31 12:02:21;;;;;;;4.05;2.53;;;23.80;99.90;;;;;;5012402;28;20710;-85
2022/08/31 12:04:59;;;;;;;12.00;3.33;;;23.90;99.90;;;;;;5013651;28;20164;-85
2022/08/31 12:07:35;;;;;;;8.68;2.90;;;24.10;99.90;;;;;;5012273;28;20171;-85
2022/08/31 12:10:19;;;;;;;5.72;3.10;;;24.00;99.90;;;;;;5012978;28;20176;-85
2022/08/31 12:13:11;;;;;;;9.63;2.42;;;24.00;99.90;;;;;;5013275;28;20534;-83
2022/08/31 12:16:02;;;;;;;4.57;2.83;;;24.10;99.90;;;;;;5012028;28;20230;-86
2022/08/31 12:18:56;;;;;;;6.38;3.05;;;24.00;99.90;;;;;;5011696;28;20250;-84
2022/08/31 12:25:03;;;;;;;14.73;2.38;;;24.20;99.90;;;;;;5014044;28;20707;-84
2022/08/31 12:27:59;;;;;;;5.97;2.70;;;24.30;99.90;;;;;;5012399;28;20165;-85
2022/08/31 12:30:27;;;;;;;10.38;3.67;;;24.30;99.90;;;;;;5011759;28;20192;-84
2022/08/31 12:33:15;;;;;;;9.75;2.85;;;24.40;99.90;;;;;;5011833;28;20188;-85
2022/08/31 12:35:42;;;;;;;5.47;3.15;;;24.50;99.90;;;;;;5012119;28;20177;-84
2022/08/31 12:38:16;;;;;;;19.88;3.25;;;24.40;99.90;;;;;;5011852;28;20173;-84
2022/08/31 12:40:45;;;;;;;20.52;3.58;;;24.50;99.90;;;;;;5013067;28;20231;-84
2022/08/31 12:43:20;;;;;;;23.60;3.47;;;24.60;99.90;;;;;;5013314;28;20258;-84
2022/08/31 12:46:07;;;;;;;11.38;3.30;;;24.50;99.90;;;;;;5012505;28;20176;-85
2022/08/31 12:48:46;;;;;;;9.98;3.90;;;24.60;99.90;;;;;;5012288;28;20208;-86
2022/08/31 12:51:45;;;;;;;6.47;3.30;;;24.70;99.90;;;;;;5012897;28;20218;-86
2022/08/31 12:54:45;;;;;;;3.38;2.80;;;24.70;99.90;;;;;;5012232;28;20261;-86
2022/08/31 12:57:32;;;;;;;9.07;3.03;;;24.70;99.90;;;;;;5013662;28;20175;-86
2022/08/31 13:00:09;;;;;;;5.50;3.53;;;24.70;99.90;;;;;;5013655;28;20525;-86
2022/08/31 13:02:40;;;;;;;16.05;3.40;;;24.50;99.90;;;;;;5012295;28;20223;-88
2022/08/31 13:05:15;;;;;;;16.48;3.47;;;24.40;99.90;;;;;;5013433;28;20179;-85
2022/08/31 13:07:40;;;;;;;6.28;2.88;;;24.50;99.90;;;;;;5012820;28;20371;-86
2022/08/31 13:10:37;;;;;;;6.80;3.17;;;24.70;99.90;;;;;;5012806;28;20696;-86
2022/08/31 13:13:05;;;;;;;10.27;3.67;;;24.80;99.90;;;;;;5005443;28;20548;-86
2022/08/31 13:15:37;;;;;;;7.88;3.58;;;24.80;99.90;;;;;;5013239;28;20165;-86
2022/08/31 13:18:14;;;;;;;7.95;3.25;;;24.80;99.90;;;;;;5029388;28;20172;-87
2022/08/31 13:20:42;;;;;;;3.60;2.95;;;24.80;99.90;;;;;;5033606;28;20208;-88
2022/08/31 13:23:12;;;;;;;9.25;3.20;;;24.90;99.90;;;;;;5033407;28;20188;-88
2022/08/31 13:25:38;;;;;;;7.85;2.88;;;25.10;99.90;;;;;;5033203;28;20196;-87
2022/08/31 13:28:11;;;;;;;4.88;3.70;;;25.10;99.90;;;;;;5035099;28;20183;-92
2022/08/31 13:30:38;;;;;;;11.45;2.97;;;25.10;99.90;;;;;;5020877;28;20177;-94